Time;durP1;ratioP1;P1;durP2;ratioP2;P2;SDS_P1;SDS_P2;PMS_P1;PMS_P2;Temp;Humidity;BMP_temperature;BMP_pressure;BME280_temperature;BME280_humidity;BME280_pressure;Samples;Min_cycle;Max_cycle;Signal;HPM_P1;HPM_P2
2023/08/10 00:00:12;;;;;;;6.43;3.70;;;;;;;12.42;93.61;101865.38;5052456;28;20094;-78
2023/08/10 00:02:41;;;;;;;5.70;3.50;;;;;;;12.41;93.40;101852.88;5061883;28;20124;-78
2023/08/10 00:05:07;;;;;;;7.53;3.63;;;;;;;12.50;92.75;101851.78;5050978;28;20056;-74
2023/08/10 00:07:34;;;;;;;5.18;3.40;;;;;;;12.57;92.68;101851.88;5054374;28;20090;-75
2023/08/10 00:09:59;;;;;;;6.18;3.30;;;;;;;12.58;92.63;101857.09;5055179;28;20190;-76
2023/08/10 00:12:25;;;;;;;5.30;3.38;;;;;;;12.57;92.50;101860.81;5048711;28;20127;-76
2023/08/10 00:14:50;;;;;;;7.93;3.55;;;;;;;12.54;92.81;101850.38;5049808;28;20487;-77
2023/08/10 00:17:16;;;;;;;8.63;3.30;;;;;;;12.53;93.02;101851.41;5057853;28;20039;-77
2023/08/10 00:19:42;;;;;;;5.40;3.20;;;;;;;12.55;93.12;101849.34;5053951;28;20472;-77
2023/08/10 00:22:07;;;;;;;6.32;3.70;;;;;;;12.54;93.54;101853.06;5053287;28;20061;-77
2023/08/10 00:24:33;;;;;;;8.23;3.53;;;;;;;12.55;93.62;101859.34;5056996;28;20035;-77
2023/08/10 00:26:58;;;;;;;10.27;3.45;;;;;;;12.53;93.09;101864.91;5051287;28;20033;-77
2023/08/10 00:29:23;;;;;;;6.13;3.47;;;;;;;12.54;93.42;101871.16;5052241;28;20492;-77
2023/08/10 00:31:49;;;;;;;4.85;3.70;;;;;;;12.59;93.50;101869.56;5053560;28;20029;-77
2023/08/10 00:34:15;;;;;;;5.25;3.45;;;;;;;12.70;92.49;101867.44;5050900;28;20029;-76
2023/08/10 00:36:40;;;;;;;5.47;3.30;;;;;;;12.68;93.12;101872.19;5051080;28;20056;-76
2023/08/10 00:39:07;;;;;;;4.13;3.03;;;;;;;12.63;93.16;101874.59;5049121;28;20017;-76
2023/08/10 00:41:33;;;;;;;8.05;3.55;;;;;;;12.61;94.15;101876.66;5050721;28;20119;-76
2023/08/10 00:43:58;;;;;;;7.10;3.45;;;;;;;12.57;93.27;101868.91;5054515;28;20032;-76
2023/08/10 00:46:23;;;;;;;6.65;3.47;;;;;;;12.56;93.68;101871.81;5053836;28;20029;-76
2023/08/10 00:48:49;;;;;;;7.35;3.38;;;;;;;12.58;93.89;101865.19;5019714;28;20047;-76
2023/08/10 00:51:14;;;;;;;5.85;3.38;;;;;;;12.57;93.56;101866.22;5033566;28;20021;-76
2023/08/10 00:53:39;;;;;;;6.95;3.63;;;;;;;12.54;94.47;101869.28;5036277;28;20126;-76
2023/08/10 00:56:05;;;;;;;6.28;3.47;;;;;;;12.56;93.98;101866.41;5026791;28;20043;-76
2023/08/10 00:58:32;;;;;;;9.07;3.90;;;;;;;12.61;94.10;101873.94;5017771;28;20033;-76
2023/08/10 01:00:58;;;;;;;5.78;3.35;;;;;;;12.54;94.29;101877.38;5049460;28;20538;-76
2023/08/10 01:03:23;;;;;;;8.02;3.70;;;;;;;12.55;93.92;101875.53;5050333;28;20033;-76
2023/08/10 01:05:56;;;;;;;7.68;3.95;;;;;;;12.51;94.59;101875.06;5055043;28;20047;-76
2023/08/10 01:08:45;;;;;;;7.15;3.55;;;;;;;12.49;95.06;101868.16;5051054;28;20469;-76
2023/08/10 01:11:31;;;;;;;6.03;3.60;;;;;;;12.47;94.97;101873.75;5031128;28;20111;-76
2023/08/10 01:14:16;;;;;;;6.63;3.63;;;;;;;12.47;95.62;101873.75;5049828;28;20112;-76
2023/08/10 01:16:42;;;;;;;9.13;3.50;;;;;;;12.49;95.61;101882.53;5015448;28;20025;-76
2023/08/10 01:19:16;;;;;;;9.60;3.78;;;;;;;12.50;95.72;101883.34;5031687;28;20162;-76
2023/08/10 01:22:02;;;;;;;7.60;4.05;;;;;;;12.53;95.40;101889.22;5020161;28;20072;-76
2023/08/10 01:24:42;;;;;;;7.53;3.67;;;;;;;12.52;95.36;101884.88;5055504;28;20095;-76
2023/08/10 01:27:11;;;;;;;6.82;3.58;;;;;;;12.53;94.97;101883.81;5050827;28;20642;-76
2023/08/10 01:29:36;;;;;;;6.22;3.55;;;;;;;12.54;95.34;101890.88;5032529;28;20029;-75
2023/08/10 01:32:02;;;;;;;8.57;3.35;;;;;;;12.61;94.89;101890.16;5016920;28;20025;-76
2023/08/10 01:34:28;;;;;;;4.93;3.13;;;;;;;12.63;95.02;101890.81;5057557;28;20056;-76
2023/08/10 01:36:53;;;;;;;6.18;3.30;;;;;;;12.66;94.70;101890.44;5050260;28;20071;-75
2023/08/10 01:39:18;;;;;;;6.20;3.28;;;;;;;12.77;93.79;101895.38;5052842;28;20025;-76
2023/08/10 01:41:45;;;;;;;5.35;3.30;;;;;;;12.83;93.99;101899.19;5051959;28;20094;-76
2023/08/10 01:44:10;;;;;;;6.47;3.20;;;;;;;12.80;94.47;101899.56;5052591;28;20028;-76
2023/08/10 01:46:36;;;;;;;8.05;3.65;;;;;;;12.77;94.72;101899.97;5052432;28;20034;-75
2023/08/10 01:49:02;;;;;;;5.80;3.30;;;;;;;12.75;94.56;101902.84;5053415;28;20125;-76
2023/08/10 01:51:28;;;;;;;5.82;3.38;;;;;;;12.64;95.28;101900.59;5031756;28;20159;-76
2023/08/10 01:53:53;;;;;;;7.10;3.70;;;;;;;12.58;96.02;101905.72;5033868;28;20024;-76
2023/08/10 01:56:19;;;;;;;9.32;3.80;;;;;;;12.52;96.33;101906.47;5016857;28;20029;-76
2023/08/10 01:58:44;;;;;;;8.77;3.70;;;;;;;12.46;96.74;101917.13;5032726;28;20035;-76
2023/08/10 02:01:09;;;;;;;6.28;3.70;;;;;;;12.40;97.66;101907.91;5028716;28;20049;-75
2023/08/10 02:03:35;;;;;;;8.40;3.40;;;;;;;12.42;97.61;101909.44;5056247;28;20385;-76
2023/08/10 02:06:00;;;;;;;5.32;3.55;;;;;;;12.41;97.64;101905.03;5049418;28;20021;-75
2023/08/10 02:08:26;;;;;;;6.55;3.75;;;;;;;12.65;96.43;101902.28;5017413;28;20025;-76
2023/08/10 02:10:51;;;;;;;6.60;3.28;;;;;;;12.63;96.20;101905.16;5051879;28;20025;-76
2023/08/10 02:13:16;;;;;;;6.63;3.40;;;;;;;12.57;97.10;101909.44;5050547;28;20040;-75
2023/08/10 02:15:42;;;;;;;6.85;3.60;;;;;;;12.54;97.30;101912.50;5057442;28;20472;-76
2023/08/10 02:18:10;;;;;;;5.28;3.50;;;;;;;12.51;97.51;101918.28;5053492;28;20036;-73
2023/08/10 02:20:36;;;;;;;5.65;3.60;;;;;;;12.53;98.13;101920.78;5045518;28;20052;-78
2023/08/10 02:23:01;;;;;;;7.35;3.60;;;;;;;12.49;98.45;101914.06;5058279;28;20036;-76
2023/08/10 02:25:26;;;;;;;6.65;3.70;;;;;;;12.45;99.02;101905.50;5055285;28;20033;-76
2023/08/10 02:27:54;;;;;;;3.85;3.20;;;;;;;12.48;99.00;101905.16;5046531;28;20651;-76
2023/08/10 02:30:20;;;;;;;5.85;3.20;;;;;;;12.52;98.93;101911.88;5051041;28;20056;-76
2023/08/10 02:32:45;;;;;;;7.70;3.55;;;;;;;12.65;97.70;101902.28;5041315;28;20439;-75
2023/08/10 02:35:11;;;;;;;10.80;3.63;;;;;;;12.66;97.35;101903.97;5048863;28;20044;-76
2023/08/10 02:37:36;;;;;;;7.45;3.47;;;;;;;12.62;97.19;101898.06;5052325;28;20079;-76
2023/08/10 02:40:06;;;;;;;11.77;3.40;;;;;;;12.61;97.61;101895.56;5044660;28;20365;-75
2023/08/10 02:42:32;;;;;;;7.00;3.47;;;;;;;12.50;98.20;101905.81;5065780;28;20028;-76
2023/08/10 02:44:57;;;;;;;5.80;3.60;;;;;;;12.54;98.49;101914.38;5058324;28;20029;-76
2023/08/10 02:47:23;;;;;;;4.47;3.25;;;;;;;12.56;98.50;101910.44;5050829;28;20044;-75
2023/08/10 02:49:48;;;;;;;5.95;3.40;;;;;;;12.58;97.79;101910.28;5051900;28;20044;-76
2023/08/10 02:52:14;;;;;;;10.05;3.67;;;;;;;12.50;98.85;101911.22;5052029;28;20025;-76
2023/08/10 02:54:39;;;;;;;6.68;3.75;;;;;;;12.54;99.21;101908.97;5040163;28;20055;-76
2023/08/10 02:57:05;;;;;;;5.35;3.30;;;;;;;12.71;97.63;101905.06;5051456;28;20021;-76
2023/08/10 02:59:30;;;;;;;4.90;3.40;;;;;;;12.64;97.66;101906.81;5051456;28;20055;-78
2023/08/10 03:01:56;;;;;;;6.13;3.50;;;;;;;12.52;98.98;101906.47;5050533;28;20091;-75
2023/08/10 03:04:21;;;;;;;6.05;3.30;;;;;;;12.43;99.62;101918.34;5053341;28;20036;-76
2023/08/10 03:06:46;;;;;;;5.00;3.30;;;;;;;12.36;100.00;101920.94;5051406;28;20068;-78
2023/08/10 03:09:13;;;;;;;4.65;3.30;;;;;;;12.33;100.00;101920.50;5050563;28;20435;-76
2023/08/10 03:11:38;;;;;;;9.85;3.80;;;;;;;12.31;100.00;101923.34;5050071;28;20029;-76
2023/08/10 03:14:03;;;;;;;6.32;3.20;;;;;;;12.28;100.00;101919.16;5056283;28;20029;-75
2023/08/10 03:16:29;;;;;;;8.30;3.58;;;;;;;12.26;100.00;101923.06;5048734;28;20017;-76
2023/08/10 03:18:55;;;;;;;7.38;3.70;;;;;;;12.25;100.00;101916.00;5050687;28;20017;-76
2023/08/10 03:21:21;;;;;;;8.80;3.88;;;;;;;12.22;100.00;101917.19;5049513;28;20037;-76
2023/08/10 03:23:46;;;;;;;6.63;3.80;;;;;;;12.22;100.00;101917.19;5051879;28;20028;-75
2023/08/10 03:26:12;;;;;;;5.72;3.88;;;;;;;12.22;100.00;101916.34;5050166;28;20465;-75
2023/08/10 03:28:37;;;;;;;6.53;3.28;;;;;;;12.23;100.00;101915.34;5049229;28;20048;-76
2023/08/10 03:31:02;;;;;;;8.60;3.65;;;;;;;12.22;100.00;101910.97;5050576;28;20021;-76
2023/08/10 03:33:28;;;;;;;6.40;4.10;;;;;;;12.21;100.00;101907.41;5052103;28;20033;-76
2023/08/10 03:35:53;;;;;;;9.48;3.63;;;;;;;12.20;100.00;101905.72;5051550;28;20103;-75
2023/08/10 03:38:18;;;;;;;6.72;4.00;;;;;;;12.17;100.00;101906.13;5058858;28;20052;-76
2023/08/10 03:40:44;;;;;;;5.97;3.83;;;;;;;12.16;100.00;101906.28;5056606;28;20082;-76
2023/08/10 03:43:09;;;;;;;9.65;4.43;;;;;;;12.09;100.00;101916.97;5052045;28;20040;-76
2023/08/10 03:45:35;;;;;;;7.85;3.97;;;;;;;12.00;100.00;101918.88;5050006;28;20476;-75
2023/08/10 03:48:01;;;;;;;7.55;4.10;;;;;;;11.91;100.00;101925.34;5049551;28;20029;-76
2023/08/10 03:50:26;;;;;;;6.15;3.80;;;;;;;11.90;100.00;101920.97;5049116;28;20473;-75
2023/08/10 03:52:53;;;;;;;5.97;4.00;;;;;;;11.90;100.00;101927.19;5059407;28;20028;-76
2023/08/10 03:55:19;;;;;;;8.90;4.22;;;;;;;11.76;100.00;101922.56;5050434;28;20040;-76
2023/08/10 03:57:45;;;;;;;7.60;4.55;;;;;;;11.59;100.00;101914.56;5049813;28;20025;-76
2023/08/10 04:00:13;;;;;;;5.50;3.95;;;;;;;11.48;100.00;101914.94;5050527;28;20083;-76
2023/08/10 04:02:38;;;;;;;7.50;3.65;;;;;;;11.40;100.00;101929.31;5052824;28;20036;-76
2023/08/10 04:05:06;;;;;;;6.53;4.10;;;;;;;11.37;100.00;101922.44;5053701;28;20047;-76
2023/08/10 04:07:37;;;;;;;8.40;4.72;;;;;;;11.41;100.00;101916.69;5052972;28;20025;-78
2023/08/10 04:10:05;;;;;;;5.75;4.28;;;;;;;11.43;100.00;101920.06;5053773;28;20037;-75
2023/08/10 04:12:35;;;;;;;6.55;4.82;;;;;;;11.51;100.00;101925.38;5051946;28;20156;-77
2023/08/10 04:15:00;;;;;;;7.55;4.32;;;;;;;11.55;100.00;101926.72;5053173;28;20021;-76
2023/08/10 04:17:26;;;;;;;8.52;4.60;;;;;;;11.60;100.00;101924.34;5052548;28;20036;-76
2023/08/10 04:19:52;;;;;;;7.95;5.05;;;;;;;11.65;100.00;101930.03;5053526;28;20029;-75
2023/08/10 04:22:18;;;;;;;10.50;4.78;;;;;;;11.70;100.00;101924.13;5053193;28;20048;-76
2023/08/10 04:24:43;;;;;;;8.45;4.75;;;;;;;11.76;100.00;101925.25;5047657;28;20025;-76
2023/08/10 04:27:10;;;;;;;8.40;4.32;;;;;;;11.83;100.00;101934.31;5053756;28;20025;-76
2023/08/10 04:29:35;;;;;;;7.05;4.20;;;;;;;11.87;100.00;101935.63;5053693;28;20037;-76
2023/08/10 04:32:01;;;;;;;9.05;4.70;;;;;;;11.91;100.00;101934.25;5053404;28;20021;-76
2023/08/10 04:34:32;;;;;;;6.35;4.75;;;;;;;11.94;100.00;101933.91;5053888;28;20033;-76
2023/08/10 04:36:57;;;;;;;7.70;4.85;;;;;;;11.98;100.00;101940.66;5052904;28;20051;-76
2023/08/10 04:39:22;;;;;;;10.30;4.57;;;;;;;12.02;100.00;101937.56;5052795;28;20026;-76
2023/08/10 04:41:48;;;;;;;7.13;4.65;;;;;;;12.05;100.00;101939.91;5060538;28;20035;-76
2023/08/10 04:44:13;;;;;;;6.68;4.88;;;;;;;12.09;100.00;101935.84;5062068;28;20013;-76
2023/08/10 04:46:39;;;;;;;7.80;4.82;;;;;;;12.10;100.00;101932.13;5052674;28;20028;-76
2023/08/10 04:49:04;;;;;;;5.88;4.70;;;;;;;12.14;100.00;101946.97;5052745;28;20021;-76
2023/08/10 04:51:30;;;;;;;7.95;4.72;;;;;;;12.11;100.00;101937.34;5046244;28;20032;-76
2023/08/10 04:53:55;;;;;;;6.22;4.03;;;;;;;12.32;100.00;101943.09;5052487;28;20027;-76
2023/08/10 04:56:20;;;;;;;4.90;4.20;;;;;;;12.44;100.00;101944.34;5059258;28;20029;-76
2023/08/10 04:58:46;;;;;;;6.13;4.45;;;;;;;12.46;100.00;101950.41;5053044;28;20515;-75
2023/08/10 05:01:14;;;;;;;6.72;4.47;;;;;;;12.34;100.00;101944.59;5052312;28;20457;-76
2023/08/10 05:03:40;;;;;;;7.88;4.40;;;;;;;12.35;100.00;101945.44;5058753;28;20036;-76
2023/08/10 05:06:05;;;;;;;5.07;4.53;;;;;;;12.31;100.00;101944.13;5052046;28;20021;-76
2023/08/10 05:08:31;;;;;;;7.53;4.93;;;;;;;12.42;100.00;101946.38;5052198;28;20047;-76
2023/08/10 05:10:57;;;;;;;6.80;4.85;;;;;;;12.77;100.00;101938.63;5060290;22;20023;-76
2023/08/10 05:13:23;;;;;;;6.47;4.47;;;;;;;13.12;99.45;101947.03;5051454;28;20036;-76
2023/08/10 05:15:49;;;;;;;6.07;4.75;;;;;;;13.33;97.38;101956.25;5052531;28;20028;-76
2023/08/10 05:18:14;;;;;;;7.22;4.70;;;;;;;13.48;95.87;101946.28;5052440;28;20033;-76
2023/08/10 05:20:40;;;;;;;5.63;4.32;;;;;;;13.60;94.97;101953.88;5049914;28;20376;-75
2023/08/10 05:23:05;;;;;;;6.47;4.50;;;;;;;13.69;95.93;101946.50;5060561;28;20072;-75
2023/08/10 05:25:31;;;;;;;5.53;4.00;;;;;;;13.87;95.13;101955.03;5053535;28;20024;-75
2023/08/10 05:27:56;;;;;;;6.18;4.80;;;;;;;13.93;93.77;101948.03;5045925;28;20740;-76
2023/08/10 05:30:22;;;;;;;6.05;4.53;;;;;;;14.00;93.09;101950.81;5056503;28;20058;-75
2023/08/10 05:32:48;;;;;;;6.28;4.55;;;;;;;14.23;91.77;101954.13;5051201;28;20033;-75
2023/08/10 05:35:14;;;;;;;6.30;4.57;;;;;;;14.34;91.12;101951.94;5050615;28;20033;-73
2023/08/10 05:37:40;;;;;;;8.63;4.35;;;;;;;14.37;90.62;101949.69;5050392;28;20035;-72
2023/08/10 05:40:09;;;;;;;4.85;3.90;;;;;;;14.58;89.87;101949.81;5048739;28;20021;-72
2023/08/10 05:42:38;;;;;;;10.25;4.63;;;;;;;14.75;87.92;101958.56;5048776;28;20029;-72
2023/08/10 05:45:06;;;;;;;5.18;4.43;;;;;;;14.70;88.16;101953.72;5050932;28;20021;-76
2023/08/10 05:47:32;;;;;;;7.70;4.47;;;;;;;14.86;88.26;101960.69;5050090;28;20408;-72
2023/08/10 05:49:58;;;;;;;6.25;4.38;;;;;;;14.89;88.14;101954.88;5054695;28;20071;-75
2023/08/10 05:52:23;;;;;;;6.07;4.38;;;;;;;15.08;86.65;101956.06;5061380;28;20025;-75
2023/08/10 05:54:48;;;;;;;8.50;4.57;;;;;;;15.05;85.89;101951.03;5056439;28;20387;-75
2023/08/10 05:57:14;;;;;;;6.32;4.50;;;;;;;15.01;85.58;101956.00;5048137;28;20028;-75
2023/08/10 05:59:39;;;;;;;7.30;4.40;;;;;;;15.16;84.07;101957.78;5051116;28;20027;-75
2023/08/10 06:02:05;;;;;;;5.60;4.47;;;;;;;15.16;84.02;101955.88;5054318;28;20028;-75
2023/08/10 06:04:30;;;;;;;6.28;4.35;;;;;;;15.14;84.28;101955.25;5051916;28;20638;-74
2023/08/10 06:06:56;;;;;;;6.20;4.75;;;;;;;15.40;83.69;101961.84;5046147;28;20021;-75
2023/08/10 06:09:21;;;;;;;8.73;4.35;;;;;;;15.62;81.99;101972.56;5050395;28;20035;-75
2023/08/10 06:11:46;;;;;;;7.57;4.57;;;;;;;15.67;81.42;101966.53;5049125;28;20048;-74
2023/08/10 06:14:12;;;;;;;8.40;4.75;;;;;;;15.72;81.62;101966.75;5050849;28;20033;-75
2023/08/10 06:16:38;;;;;;;10.25;4.82;;;;;;;15.64;81.48;101972.38;5054493;28;20422;-74
2023/08/10 06:19:04;;;;;;;8.80;4.45;;;;;;;16.20;80.88;101969.41;5050948;28;20067;-74
2023/08/10 06:21:30;;;;;;;9.32;4.45;;;;;;;17.36;76.11;101966.34;5062199;28;20029;-73
2023/08/10 06:23:57;;;;;;;6.90;3.97;;;;;;;18.95;68.34;101966.56;5047812;28;20036;-74
2023/08/10 06:26:23;;;;;;;5.95;3.78;;;;;;;20.63;62.10;101972.47;5062410;28;20099;-73
2023/08/10 06:28:48;;;;;;;4.82;3.50;;;;;;;21.23;59.79;101965.03;5048637;28;20071;-74
2023/08/10 06:31:14;;;;;;;8.15;3.58;;;;;;;22.62;54.09;101971.41;5046906;28;20288;-74
2023/08/10 06:33:39;;;;;;;4.18;3.30;;;;;;;22.82;53.29;101971.72;5048904;28;20489;-74
2023/08/10 06:36:06;;;;;;;7.22;3.60;;;;;;;23.02;50.62;101973.94;5050298;28;20522;-74
2023/08/10 06:38:34;;;;;;;9.07;4.35;;;;;;;22.15;54.84;101972.59;5049040;28;20027;-74
2023/08/10 06:41:00;;;;;;;6.85;3.28;;;;;;;22.93;53.14;101977.38;5047560;28;20062;-74
2023/08/10 06:43:27;;;;;;;4.32;3.08;;;;;;;24.10;49.50;101983.72;5057397;28;20052;-74
2023/08/10 06:45:52;;;;;;;5.45;3.28;;;;;;;24.04;48.19;101983.66;5050152;28;20025;-74
2023/08/10 06:48:18;;;;;;;7.10;3.47;;;;;;;23.29;49.09;101980.63;5053538;28;20032;-74
2023/08/10 06:50:46;;;;;;;8.40;3.40;;;;;;;22.10;53.31;101974.16;5050521;28;20384;-74
2023/08/10 06:53:11;;;;;;;6.32;3.30;;;;;;;23.36;50.55;101980.44;5052770;28;20029;-74
2023/08/10 06:55:38;;;;;;;7.63;3.28;;;;;;;23.27;50.83;101988.31;5049445;28;20051;-74
2023/08/10 06:58:04;;;;;;;8.70;2.97;;;;;;;23.20;50.49;101982.97;5050043;28;20128;-74
2023/08/10 07:00:30;;;;;;;6.70;2.92;;;;;;;22.59;50.81;101989.22;5048925;28;20096;-73
2023/08/10 07:02:55;;;;;;;7.40;3.40;;;;;;;20.95;55.75;101976.75;5049475;28;20028;-73
2023/08/10 07:05:21;;;;;;;6.25;3.20;;;;;;;20.33;58.83;101981.56;5049647;28;20036;-73
2023/08/10 07:07:47;;;;;;;7.03;3.05;;;;;;;20.42;58.41;101987.53;5050168;28;20036;-74
2023/08/10 07:10:13;;;;;;;3.92;2.85;;;;;;;20.30;59.70;101976.56;5040446;28;20024;-73
2023/08/10 07:12:38;;;;;;;4.65;2.72;;;;;;;19.61;61.97;101985.09;5048320;28;20143;-74
2023/08/10 07:15:04;;;;;;;6.25;3.03;;;;;;;19.32;62.61;101984.84;5047588;28;20469;-74
2023/08/10 07:17:30;;;;;;;6.53;3.05;;;;;;;19.23;63.10;101985.16;5052000;28;20123;-75
2023/08/10 07:19:58;;;;;;;4.50;2.67;;;;;;;19.43;62.78;101986.78;5048442;28;20477;-73
2023/08/10 07:22:24;;;;;;;6.22;3.10;;;;;;;18.91;64.23;101981.69;5046188;28;20032;-74
2023/08/10 07:24:49;;;;;;;6.28;3.20;;;;;;;18.92;64.37;101978.72;5047314;28;20473;-73
2023/08/10 07:27:15;;;;;;;5.13;3.15;;;;;;;18.96;64.72;101984.63;5047103;28;20028;-74
2023/08/10 07:29:40;;;;;;;4.45;2.90;;;;;;;19.18;64.18;101986.88;5048842;28;20041;-74
2023/08/10 07:32:07;;;;;;;6.30;3.10;;;;;;;19.54;62.77;101993.38;5051543;28;20028;-74
2023/08/10 07:34:35;;;;;;;4.65;2.90;;;;;;;19.59;62.74;101984.53;5045954;28;20021;-74
2023/08/10 07:37:00;;;;;;;5.63;2.90;;;;;;;19.46;62.25;101988.25;5046008;28;20029;-73
2023/08/10 07:39:26;;;;;;;7.78;2.80;;;;;;;19.46;61.91;101993.72;5047345;28;20024;-74
2023/08/10 07:41:52;;;;;;;7.95;3.17;;;;;;;18.57;65.82;101997.53;5048188;28;20492;-73
2023/08/10 07:44:18;;;;;;;5.25;2.50;;;;;;;18.62;66.89;101982.16;5053776;28;20377;-73
2023/08/10 07:46:46;;;;;;;6.03;2.42;;;;;;;19.22;63.06;101988.94;5049546;28;20052;-74
2023/08/10 07:49:12;;;;;;;5.20;2.80;;;;;;;19.00;63.39;101987.72;5053838;28;20032;-73
2023/08/10 07:51:38;;;;;;;6.50;2.80;;;;;;;19.31;63.87;102002.28;5058180;28;20104;-75
2023/08/10 07:54:04;;;;;;;3.80;2.65;;;;;;;19.34;63.48;102001.84;5051416;28;20345;-74
2023/08/10 07:56:29;;;;;;;4.28;2.58;;;;;;;19.16;64.29;101995.31;5050012;28;20479;-74
2023/08/10 07:58:54;;;;;;;4.35;2.88;;;;;;;18.63;65.92;101997.47;5051818;28;20020;-75
2023/08/10 08:01:20;;;;;;;8.25;2.70;;;;;;;18.55;66.20;101997.72;5049254;28;20021;-74
2023/08/10 08:03:45;;;;;;;5.22;2.42;;;;;;;19.01;63.66;101998.38;5054986;28;20040;-74
2023/08/10 08:06:14;;;;;;;8.65;2.90;;;;;;;18.37;64.97;101997.66;5055193;28;20069;-74
2023/08/10 08:08:39;;;;;;;4.85;2.55;;;;;;;18.16;66.48;101992.38;5049015;28;20045;-74
2023/08/10 08:11:04;;;;;;;7.35;2.50;;;;;;;18.22;66.47;101993.38;5048222;28;20489;-74
2023/08/10 08:13:30;;;;;;;5.38;2.20;;;;;;;18.92;62.79;101988.81;5050878;28;20083;-74
2023/08/10 08:15:57;;;;;;;5.70;2.00;;;;;;;19.20;61.55;101993.81;5029217;28;20033;-74
2023/08/10 08:18:48;;;;;;;5.82;2.15;;;;;;;19.05;62.37;101996.06;5050684;28;20441;-74
2023/08/10 08:21:15;;;;;;;4.78;2.25;;;;;;;19.09;62.02;101989.91;5054616;28;20044;-75
2023/08/10 08:23:41;;;;;;;6.07;2.90;;;;;;;19.41;61.86;101986.22;5050894;28;20025;-75
2023/08/10 08:26:06;;;;;;;5.85;2.80;;;;;;;19.58;61.45;101988.31;5050671;28;20039;-75
2023/08/10 08:28:32;;;;;;;5.05;2.30;;;;;;;19.57;61.76;101994.84;5048804;28;20029;-75
2023/08/10 08:30:57;;;;;;;7.35;2.92;;;;;;;20.09;59.82;102000.69;5050484;28;20025;-75
2023/08/10 08:33:23;;;;;;;6.90;2.38;;;;;;;20.25;59.53;101999.16;5050500;28;20060;-75
2023/08/10 08:35:48;;;;;;;5.18;2.45;;;;;;;20.27;59.21;102004.41;5051921;28;20391;-75
2023/08/10 08:38:17;;;;;;;4.57;2.28;;;;;;;20.01;58.80;101998.25;5050608;28;20025;-75
2023/08/10 08:40:43;;;;;;;7.00;2.55;;;;;;;19.77;58.59;102006.31;5048278;28;20017;-73
2023/08/10 08:43:08;;;;;;;4.57;2.00;;;;;;;19.80;60.37;102000.41;5034296;28;20074;-75
2023/08/10 08:45:34;;;;;;;5.22;2.17;;;;;;;20.24;58.15;102005.69;5028646;28;20436;-74
2023/08/10 08:47:59;;;;;;;3.65;1.80;;;;;;;20.89;56.71;101998.56;5032906;28;20479;-74
2023/08/10 08:50:28;;;;;;;3.38;2.00;;;;;;;20.83;56.55;101999.50;5033847;28;20041;-74
2023/08/10 08:52:53;;;;;;;3.13;1.95;;;;;;;21.30;53.54;102004.09;5049853;28;20035;-74
2023/08/10 08:55:18;;;;;;;3.72;2.42;;;;;;;21.24;53.42;101996.84;5050960;28;20033;-74
2023/08/10 08:57:44;;;;;;;5.13;2.10;;;;;;;21.23;52.16;101989.69;5033149;28;20041;-73
2023/08/10 09:00:10;;;;;;;5.10;1.92;;;;;;;22.01;50.98;101996.72;5049804;28;20043;-73
2023/08/10 09:02:35;;;;;;;4.88;2.15;;;;;;;22.90;50.05;101999.84;5055523;28;20033;-73
2023/08/10 09:05:02;;;;;;;5.05;2.03;;;;;;;25.01;43.94;101992.13;5051438;28;20044;-73
2023/08/10 09:07:30;;;;;;;4.43;2.15;;;;;;;25.49;43.55;101995.66;5050021;28;20044;-74
2023/08/10 09:09:56;;;;;;;5.13;2.17;;;;;;;26.73;40.90;101995.78;5050798;28;20480;-74
2023/08/10 09:12:33;;;;;;;5.22;2.35;;;;;;;26.31;39.36;101985.88;5050417;28;20094;-74
2023/08/10 09:15:05;;;;;;;4.00;1.90;;;;;;;27.31;37.47;101986.25;5044381;28;20538;-74
2023/08/10 09:17:36;;;;;;;4.22;1.80;;;;;;;28.22;35.88;101987.94;5055259;28;20035;-74
2023/08/10 09:20:05;;;;;;;5.70;1.70;;;;;;;28.29;36.10;101976.53;5049681;28;20414;-74
2023/08/10 09:22:37;;;;;;;5.85;1.77;;;;;;;29.30;35.10;101985.16;5036873;28;20033;-75
2023/08/10 09:25:03;;;;;;;4.05;2.00;;;;;;;28.16;35.08;101986.31;5044414;28;20033;-74
2023/08/10 09:27:29;;;;;;;3.95;1.70;;;;;;;28.38;35.16;101976.72;5052553;28;20116;-74
2023/08/10 09:29:58;;;;;;;4.15;1.55;;;;;;;27.43;36.98;101971.25;5050486;28;20108;-74
2023/08/10 09:32:24;;;;;;;4.53;1.83;;;;;;;29.26;34.20;101975.78;5050506;28;20021;-75
2023/08/10 09:34:49;;;;;;;3.55;1.90;;;;;;;27.30;36.87;101965.22;5048785;28;20067;-75
2023/08/10 09:37:15;;;;;;;5.18;1.80;;;;;;;26.66;38.37;101961.28;5033089;28;20025;-75
2023/08/10 09:39:41;;;;;;;4.57;1.80;;;;;;;26.37;40.90;101967.41;5050987;28;20059;-74
2023/08/10 09:42:06;;;;;;;4.95;2.03;;;;;;;26.35;40.54;101964.09;5061269;28;20027;-75
2023/08/10 09:44:43;;;;;;;4.43;2.03;;;;;;;26.59;39.64;101967.09;5054217;28;20154;-75
2023/08/10 09:47:08;;;;;;;3.97;1.83;;;;;;;27.15;38.22;101962.53;5050050;28;20044;-74
2023/08/10 09:49:34;;;;;;;5.13;1.80;;;;;;;28.10;37.68;101977.22;5030413;28;20032;-73
2023/08/10 09:52:00;;;;;;;3.55;1.77;;;;;;;29.80;34.26;101973.63;5040228;28;20039;-73
2023/08/10 09:54:26;;;;;;;3.58;1.92;;;;;;;29.64;34.07;101978.63;5040317;28;20540;-75
2023/08/10 09:56:53;;;;;;;3.35;2.25;;;;;;;28.10;36.70;101973.63;5032101;28;20046;-76
2023/08/10 09:59:19;;;;;;;5.30;1.90;;;;;;;30.58;33.31;101964.88;5051040;28;20036;-75
2023/08/10 10:01:44;;;;;;;3.55;1.67;;;;;;;28.82;36.04;101972.97;5050589;28;20033;-75
2023/08/10 10:04:10;;;;;;;4.97;1.70;;;;;;;29.75;34.09;101977.31;5049043;28;20024;-74
2023/08/10 10:06:36;;;;;;;3.70;1.95;;;;;;;29.32;33.16;101983.72;5032743;28;20025;-76
2023/08/10 10:09:03;;;;;;;4.57;1.90;;;;;;;29.93;32.65;101966.50;5049802;28;20056;-82
2023/08/10 10:11:29;;;;;;;4.25;2.00;;;;;;;29.67;32.73;101975.22;5032711;28;20045;-76
2023/08/10 10:13:55;;;;;;;3.88;1.73;;;;;;;29.94;33.29;101968.16;5032707;28;20574;-76
2023/08/10 10:16:20;;;;;;;4.07;1.83;;;;;;;29.56;32.92;101965.41;5031194;28;20086;-76
2023/08/10 10:18:45;;;;;;;3.65;1.90;;;;;;;29.24;33.45;101969.69;5040836;28;20421;-76
2023/08/10 10:21:11;;;;;;;3.25;1.90;;;;;;;27.80;34.98;101965.22;5046742;28;20497;-76
2023/08/10 10:23:40;;;;;;;4.45;1.75;;;;;;;26.85;38.21;101956.00;5011934;28;20033;-76
2023/08/10 10:26:06;;;;;;;4.43;1.73;;;;;;;27.33;37.33;101950.84;5051998;28;20112;-75
2023/08/10 10:28:33;;;;;;;3.45;1.85;;;;;;;26.96;36.99;101960.41;5050438;28;20040;-76
2023/08/10 10:31:04;;;;;;;5.53;1.77;;;;;;;26.34;39.09;101960.47;5055642;28;20457;-76
2023/08/10 10:33:30;;;;;;;2.95;1.50;;;;;;;28.08;36.74;101954.50;5044193;28;20064;-76
2023/08/10 10:36:05;;;;;;;3.42;2.20;;;;;;;29.03;34.41;101956.91;5050674;28;20378;-76
2023/08/10 10:38:31;;;;;;;5.43;2.00;;;;;;;29.04;34.07;101955.78;5049546;28;20052;-76
2023/08/10 10:41:10;;;;;;;4.38;1.90;;;;;;;29.10;33.63;101951.03;5049908;28;20064;-76
2023/08/10 10:43:36;;;;;;;4.57;1.73;;;;;;;29.99;33.77;101945.06;5051205;28;20025;-76
2023/08/10 10:46:03;;;;;;;3.45;1.90;;;;;;;29.14;33.73;101946.50;5031345;28;20033;-76
2023/08/10 10:48:33;;;;;;;3.83;2.38;;;;;;;28.94;33.63;101949.56;5034717;28;20028;-75
2023/08/10 10:51:01;;;;;;;2.13;1.75;;;;;;;30.12;32.73;101955.38;5053945;28;20567;-75
2023/08/10 10:53:26;;;;;;;4.75;2.20;;;;;;;29.01;33.60;101948.09;5048546;28;20028;-76
2023/08/10 10:55:52;;;;;;;3.33;1.90;;;;;;;27.99;34.68;101942.41;5014621;28;20025;-75
2023/08/10 10:58:17;;;;;;;4.93;2.10;;;;;;;26.90;37.47;101942.16;5029987;28;20044;-75
2023/08/10 11:00:43;;;;;;;5.30;2.20;;;;;;;25.23;40.80;101943.19;5049839;28;20457;-75
2023/08/10 11:03:10;;;;;;;3.78;2.08;;;;;;;25.22;42.07;101946.19;5049190;28;20082;-75
2023/08/10 11:05:36;;;;;;;4.47;2.05;;;;;;;25.81;40.91;101953.25;5049330;28;20025;-76
2023/08/10 11:08:06;;;;;;;4.10;2.00;;;;;;;25.48;41.68;101947.13;5048981;28;20032;-75
2023/08/10 11:10:51;;;;;;;3.78;2.10;;;;;;;25.18;42.32;101948.66;5051081;28;20024;-75
2023/08/10 11:13:18;;;;;;;4.38;2.28;;;;;;;27.62;37.50;101957.63;5038669;28;20097;-75
2023/08/10 11:15:45;;;;;;;3.45;2.00;;;;;;;28.49;35.87;101958.88;5049450;28;20037;-76
2023/08/10 11:18:11;;;;;;;3.50;2.00;;;;;;;29.64;33.99;101954.44;5049271;28;20021;-75
2023/08/10 11:20:48;;;;;;;3.30;2.22;;;;;;;29.70;32.82;101952.41;5048774;28;20024;-76